< < Back
Terminal Aerodrome Forecast


Current Version              Previous Versions:   1  2  3  4  5  6  7  8  9  

Terminal Aerodrome Forecast

776
FTUS42 KMLB 030258 AAA
TAFMCO
TAF AMD
KMCO 030258Z 0303/0324 18006KT P6SM SCT120 OVC250
     FM031400 22012KT P6SM SCT040 OVC120
     FM031700 23014G22KT P6SM VCTS SCT040CB BKN080
      TEMPO 0318/0321 3SM TSRA BKN020CB OVC040
     FM032200 24008KT P6SM SCT040 OVC080=

Latest METAR

386
SAUS70 KWBC 030600 RRC
MTRMCO
METAR KMCO 030553Z 17008KT 10SM BKN200 24/23 A2992 RMK SLP128 T02390228
10250 20239 58014


USA.gov is the U.S. government's official web portal to all federal, state and local government web resources and services.